Time;durP1;ratioP1;P1;durP2;ratioP2;P2;SDS_P1;SDS_P2;PMS_P1;PMS_P2;Temp;Humidity;BMP_temperature;BMP_pressure;BME280_temperature;BME280_humidity;BME280_pressure;Samples;Min_cycle;Max_cycle;Signal;HPM_P1;HPM_P2
2021/09/16 00:01:53;;;;;;;23.05;17.12;;;;;;;13.68;78.37;100156.06;1660843;85;25847;-69
2021/09/16 00:04:19;;;;;;;29.27;18.55;;;;;;;13.66;78.59;100152.89;1669808;84;25813;-69
2021/09/16 00:06:46;;;;;;;26.07;17.15;;;;;;;13.66;78.51;100156.39;1668252;84;25929;-69
2021/09/16 00:09:13;;;;;;;26.62;17.32;;;;;;;13.63;78.50;100152.98;1669831;83;25506;-68
2021/09/16 00:11:40;;;;;;;25.80;16.80;;;;;;;13.63;78.43;100159.77;1679448;85;27406;-68
2021/09/16 00:14:07;;;;;;;26.35;17.45;;;;;;;13.61;78.67;100150.59;1659877;84;25778;-70
2021/09/16 00:16:34;;;;;;;23.42;17.35;;;;;;;13.63;78.79;100152.98;1659529;84;26921;-69
2021/09/16 00:19:01;;;;;;;24.10;16.90;;;;;;;13.62;78.93;100146.75;1679699;84;25815;-69
2021/09/16 00:21:27;;;;;;;26.42;17.75;;;;;;;13.63;78.96;100148.33;1659941;85;25718;-69
2021/09/16 00:23:54;;;;;;;25.43;17.60;;;;;;;13.65;79.05;100146.64;1672741;85;29549;-69
2021/09/16 00:26:20;;;;;;;26.40;17.50;;;;;;;13.66;79.20;100142.02;1674384;85;25825;-69
2021/09/16 00:28:47;;;;;;;26.42;16.95;;;;;;;13.68;79.19;100145.98;1668264;85;25774;-69
2021/09/16 00:31:14;;;;;;;25.57;16.87;;;;;;;13.71;79.40;100145.89;1668323;85;25644;-69
2021/09/16 00:33:40;;;;;;;21.62;16.45;;;;;;;13.72;79.35;100148.25;1666911;85;25477;-69
2021/09/16 00:36:06;;;;;;;29.35;17.10;;;;;;;13.74;79.37;100146.02;1641604;85;27305;-69
2021/09/16 00:38:33;;;;;;;23.75;16.75;;;;;;;13.77;79.44;100137.74;1670183;83;25727;-69
2021/09/16 00:40:59;;;;;;;25.52;17.07;;;;;;;13.78;79.54;100136.05;1667487;83;25846;-69
2021/09/16 00:43:26;;;;;;;22.37;16.55;;;;;;;13.81;79.57;100128.59;1666288;83;25932;-69
2021/09/16 00:46:05;;;;;;;23.35;16.73;;;;;;;13.83;79.62;100127.69;1661628;84;25694;-69
2021/09/16 00:48:33;;;;;;;25.40;17.48;;;;;;;13.86;79.65;100125.42;1654046;85;27263;-67
2021/09/16 00:51:00;;;;;;;23.98;16.90;;;;;;;13.88;79.73;100125.91;1665163;85;25860;-68
2021/09/16 00:53:30;;;;;;;27.82;16.93;;;;;;;13.90;79.71;100120.92;1665567;85;25911;-68
2021/09/16 00:55:59;;;;;;;24.60;17.42;;;;;;;13.90;79.71;100121.70;1676995;85;25961;-68
2021/09/16 00:58:28;;;;;;;24.05;17.70;;;;;;;13.92;79.78;100113.22;1669227;84;25466;-68
2021/09/16 01:00:55;;;;;;;20.72;16.52;;;;;;;13.93;79.94;100118.90;1680272;85;27344;-68
2021/09/16 01:03:23;;;;;;;22.05;16.25;;;;;;;13.96;80.03;100115.48;1675481;85;27171;-68
2021/09/16 01:05:51;;;;;;;23.62;17.00;;;;;;;13.97;79.93;100113.00;1660340;84;25849;-68
2021/09/16 01:08:19;;;;;;;21.52;16.12;;;;;;;13.98;80.14;100109.16;1642802;86;25675;-68
2021/09/16 01:10:45;;;;;;;27.13;17.65;;;;;;;13.99;80.21;100106.66;1664774;84;27138;-68
2021/09/16 01:13:13;;;;;;;25.08;17.30;;;;;;;14.02;80.33;100110.07;1658919;85;29619;-68
2021/09/16 01:15:40;;;;;;;22.10;16.00;;;;;;;14.04;80.36;100111.88;1665042;85;25866;-68
2021/09/16 01:18:07;;;;;;;21.60;17.25;;;;;;;14.07;80.31;100111.22;1667653;85;25787;-68
2021/09/16 01:20:33;;;;;;;51.02;42.93;;;;;;;14.11;80.25;100111.33;1660406;85;25627;-68
2021/09/16 01:23:00;;;;;;;29.60;21.70;;;;;;;14.13;81.00;100108.52;1662392;85;25915;-68
2021/09/16 01:25:29;;;;;;;24.85;16.80;;;;;;;14.20;81.24;100109.33;1662431;85;27359;-68
2021/09/16 01:27:58;;;;;;;25.70;16.60;;;;;;;14.22;80.91;100103.52;1675973;85;25665;-68
2021/09/16 01:30:25;;;;;;;25.23;16.70;;;;;;;14.23;80.63;100103.77;1666613;85;25642;-68
2021/09/16 01:32:54;;;;;;;25.90;16.57;;;;;;;14.23;80.49;100101.05;1667807;85;25768;-68
2021/09/16 01:35:22;;;;;;;26.75;16.35;;;;;;;14.25;80.65;100098.77;1671542;85;25793;-68
2021/09/16 01:37:49;;;;;;;21.95;16.60;;;;;;;14.26;80.47;100090.85;1673537;85;27496;-68
2021/09/16 01:40:15;;;;;;;24.35;16.87;;;;;;;14.27;80.50;100093.78;1675257;85;25973;-68
2021/09/16 01:42:44;;;;;;;26.68;17.32;;;;;;;14.29;80.48;100090.17;1662468;85;25467;-68
2021/09/16 01:45:14;;;;;;;24.85;17.05;;;;;;;14.29;80.49;100092.90;1659763;83;25665;-69
2021/09/16 01:47:43;;;;;;;26.17;16.48;;;;;;;14.31;80.43;100094.70;1668202;84;25473;-69
2021/09/16 01:50:12;;;;;;;24.47;16.40;;;;;;;14.31;80.36;100092.77;1659844;84;27478;-69
2021/09/16 01:52:39;;;;;;;22.98;15.43;;;;;;;14.32;80.28;100090.84;1662308;83;25817;-69
2021/09/16 01:55:08;;;;;;;23.87;14.75;;;;;;;14.33;80.42;100082.91;1667926;85;25657;-69
2021/09/16 01:57:34;;;;;;;23.22;14.63;;;;;;;14.34;80.40;100080.44;1660909;84;26282;-69
2021/09/16 02:00:02;;;;;;;23.73;15.65;;;;;;;14.36;80.35;100084.39;1667875;85;25657;-69
2021/09/16 02:02:29;;;;;;;26.15;15.88;;;;;;;14.36;80.35;100084.97;1663569;85;27460;-69
2021/09/16 02:04:56;;;;;;;23.77;15.43;;;;;;;14.36;80.25;100075.44;1656970;85;25468;-69
2021/09/16 02:07:23;;;;;;;21.00;15.43;;;;;;;14.37;80.38;100075.68;1662995;84;25991;-69
2021/09/16 02:09:49;;;;;;;21.80;16.40;;;;;;;14.38;80.53;100071.80;1662826;83;26406;-69
2021/09/16 02:12:16;;;;;;;21.33;14.50;;;;;;;14.39;80.59;100078.84;1663488;85;25870;-69
2021/09/16 02:14:42;;;;;;;21.55;15.13;;;;;;;14.39;80.54;100076.12;1671699;85;27420;-69
2021/09/16 02:17:09;;;;;;;22.35;16.25;;;;;;;14.39;80.43;100074.19;1666737;85;25633;-69
2021/09/16 02:19:36;;;;;;;26.05;16.05;;;;;;;14.40;80.44;100074.97;1659972;84;25813;-69
2021/09/16 02:22:03;;;;;;;22.10;15.23;;;;;;;14.38;80.27;100071.23;1637242;84;27832;-69
2021/09/16 02:24:29;;;;;;;26.50;16.32;;;;;;;14.38;80.45;100067.15;1658710;85;25879;-69
2021/09/16 02:26:56;;;;;;;25.27;16.65;;;;;;;14.40;80.47;100069.53;1644299;85;27333;-69
2021/09/16 02:29:23;;;;;;;26.60;16.27;;;;;;;14.42;80.65;100059.12;1648147;85;25888;-69
2021/09/16 02:31:49;;;;;;;27.82;16.85;;;;;;;14.45;81.05;100063.08;1657990;85;25799;-69
2021/09/16 02:34:16;;;;;;;21.00;15.32;;;;;;;14.47;80.85;100056.72;1652345;85;26323;-69
2021/09/16 02:36:42;;;;;;;25.02;16.93;;;;;;;14.48;80.82;100055.03;1644097;85;25621;-69
2021/09/16 02:39:09;;;;;;;28.92;15.95;;;;;;;14.49;80.65;100050.37;1658326;85;27605;-69
2021/09/16 02:41:35;;;;;;;22.22;16.75;;;;;;;14.48;80.49;100054.23;1645226;85;26049;-69
2021/09/16 02:44:02;;;;;;;26.15;16.82;;;;;;;14.46;80.41;100043.69;1639121;84;25695;-69
2021/09/16 02:46:28;;;;;;;23.92;15.15;;;;;;;14.47;80.56;100043.93;1646064;85;25854;-69
2021/09/16 02:48:56;;;;;;;26.93;16.75;;;;;;;14.47;80.55;100041.76;1652239;85;25679;-69
2021/09/16 02:51:23;;;;;;;26.60;16.60;;;;;;;14.46;80.56;100036.89;1636179;85;27296;-69
2021/09/16 02:53:49;;;;;;;24.60;15.88;;;;;;;14.46;80.51;100042.34;1664444;85;27157;-69
2021/09/16 02:56:16;;;;;;;28.15;17.17;;;;;;;14.47;80.60;100037.67;1655231;85;25662;-69
2021/09/16 02:58:42;;;;;;;23.12;16.93;;;;;;;14.45;80.49;100031.79;1653708;85;25834;-69
2021/09/16 03:01:08;;;;;;;27.65;17.25;;;;;;;14.46;80.52;100033.38;1632361;85;25767;-69
2021/09/16 03:03:36;;;;;;;22.25;15.78;;;;;;;14.45;80.50;100036.66;1645463;85;27386;-69
2021/09/16 03:06:03;;;;;;;23.47;17.15;;;;;;;14.46;80.55;100024.64;1665166;85;25450;-69
2021/09/16 03:08:30;;;;;;;27.98;18.27;;;;;;;14.47;80.69;100027.61;1647958;85;25867;-69
2021/09/16 03:10:57;;;;;;;27.32;17.92;;;;;;;14.48;80.65;100029.75;1634425;85;25913;-69
2021/09/16 03:13:23;;;;;;;24.23;17.57;;;;;;;14.48;80.59;100025.09;1635515;85;25629;-69
2021/09/16 03:15:50;;;;;;;20.75;15.68;;;;;;;14.48;80.57;100032.47;1636570;86;27465;-69
2021/09/16 03:18:16;;;;;;;22.87;16.55;;;;;;;14.47;80.52;100021.34;1668385;83;26047;-69
2021/09/16 03:20:42;;;;;;;25.45;17.50;;;;;;;14.49;80.53;100022.61;1654210;84;25891;-69
2021/09/16 03:23:09;;;;;;;24.30;16.23;;;;;;;14.50;80.60;100019.31;1686107;81;25820;-69
2021/09/16 03:25:35;;;;;;;24.90;17.48;;;;;;;14.51;80.57;100021.69;1697775;82;25592;-69
2021/09/16 03:28:02;;;;;;;20.88;16.45;;;;;;;14.52;80.49;100023.84;1684493;83;27311;-69
2021/09/16 03:30:31;;;;;;;23.52;16.05;;;;;;;14.52;80.50;100021.93;1695456;81;25972;-69
2021/09/16 03:32:58;;;;;;;21.52;15.75;;;;;;;14.54;80.47;100025.09;1705419;81;25723;-69
2021/09/16 03:35:25;;;;;;;21.62;16.37;;;;;;;14.53;80.45;100011.25;1683876;82;25687;-69
2021/09/16 03:37:51;;;;;;;22.82;17.23;;;;;;;14.56;80.48;100020.10;1687341;83;26416;-69
2021/09/16 03:40:17;;;;;;;18.87;15.28;;;;;;;14.57;80.43;100012.17;1692110;83;27398;-69
2021/09/16 03:42:53;;;;;;;24.43;17.05;;;;;;;14.58;80.33;100010.23;1685818;82;25730;-69
2021/09/16 03:45:18;;;;;;;22.22;15.55;;;;;;;14.59;80.37;100006.39;1682710;81;26602;-68
2021/09/16 03:47:45;;;;;;;23.70;16.32;;;;;;;14.60;80.32;100004.48;1683873;82;26152;-68
2021/09/16 03:50:12;;;;;;;21.62;15.85;;;;;;;14.60;80.42;99997.10;1696913;83;25805;-68
2021/09/16 03:52:39;;;;;;;23.70;16.25;;;;;;;14.62;80.44;99997.55;1697715;83;27885;-68
2021/09/16 03:55:08;;;;;;;28.32;15.83;;;;;;;14.64;80.43;99993.13;1686055;82;27203;-68
2021/09/16 03:57:34;;;;;;;22.05;15.78;;;;;;;14.64;80.31;99991.76;1693478;82;25796;-68
2021/09/16 04:00:01;;;;;;;22.05;15.48;;;;;;;14.66;80.40;99990.30;1682189;83;26249;-68
2021/09/16 04:02:27;;;;;;;25.75;16.60;;;;;;;14.66;80.30;99990.84;1690234;81;25424;-68
2021/09/16 04:04:53;;;;;;;23.10;15.98;;;;;;;14.65;80.25;99987.34;1683893;82;27286;-68
2021/09/16 04:07:20;;;;;;;21.07;14.68;;;;;;;14.68;80.31;99989.38;1691133;82;25827;-68
2021/09/16 04:09:46;;;;;;;25.80;16.90;;;;;;;14.65;80.14;99984.61;1683433;82;25809;-68
2021/09/16 04:12:12;;;;;;;20.57;15.70;;;;;;;14.65;80.16;99984.61;1685992;82;25776;-68
2021/09/16 04:14:40;;;;;;;24.92;16.17;;;;;;;14.65;80.05;99983.25;1686064;82;25592;-68
2021/09/16 04:17:07;;;;;;;22.20;15.03;;;;;;;14.66;80.12;99985.40;1686687;82;27311;-69
2021/09/16 04:19:33;;;;;;;24.60;16.45;;;;;;;14.68;80.13;99980.42;1682373;83;27221;-70
2021/09/16 04:21:59;;;;;;;22.98;16.65;;;;;;;14.69;80.09;99987.44;1682490;82;25810;-69
2021/09/16 04:24:26;;;;;;;22.98;16.48;;;;;;;14.70;80.10;99984.38;1692508;82;26543;-68
2021/09/16 04:26:52;;;;;;;23.15;15.95;;;;;;;14.70;80.07;99980.88;1683826;83;25417;-69
2021/09/16 04:29:19;;;;;;;23.52;15.98;;;;;;;14.70;80.08;99978.93;1699409;81;27362;-69
2021/09/16 04:31:46;;;;;;;25.50;15.80;;;;;;;14.72;80.11;99974.50;1703812;82;25928;-69
2021/09/16 04:34:12;;;;;;;23.22;15.40;;;;;;;14.75;80.16;99980.63;1686258;83;25817;-69
2021/09/16 04:36:39;;;;;;;25.75;16.20;;;;;;;14.75;80.07;99975.19;1655381;84;25600;-69
2021/09/16 04:39:06;;;;;;;25.55;16.12;;;;;;;14.77;80.18;99978.34;1625353;86;25325;-68
2021/09/16 04:41:34;;;;;;;22.07;16.40;;;;;;;14.76;80.02;99978.11;1684964;83;27403;-68
2021/09/16 04:44:01;;;;;;;23.12;15.78;;;;;;;14.77;80.03;99977.56;1689114;81;25910;-68
2021/09/16 04:46:28;;;;;;;25.60;16.27;;;;;;;14.78;80.08;99974.50;1687718;83;25838;-69
2021/09/16 04:48:54;;;;;;;25.80;15.90;;;;;;;14.80;80.12;99973.58;1669314;84;25742;-68
2021/09/16 04:51:21;;;;;;;25.30;16.55;;;;;;;14.82;80.10;99981.41;1649775;85;25638;-69
2021/09/16 04:53:48;;;;;;;27.15;16.70;;;;;;;14.84;80.13;99975.04;1657093;84;27362;-68
2021/09/16 04:56:14;;;;;;;22.25;15.58;;;;;;;14.86;80.04;99984.44;1648798;85;25996;-69
2021/09/16 04:58:41;;;;;;;21.23;15.38;;;;;;;14.87;79.99;99979.80;1644004;85;25848;-69
2021/09/16 05:01:07;;;;;;;22.75;15.88;;;;;;;14.90;80.16;99975.81;1653317;84;25754;-69
2021/09/16 05:03:34;;;;;;;19.52;15.18;;;;;;;14.93;80.09;99975.12;1650724;85;26515;-67
2021/09/16 05:06:00;;;;;;;21.82;15.05;;;;;;;14.95;80.17;99969.34;1644378;85;27245;-69
2021/09/16 05:08:27;;;;;;;20.62;15.32;;;;;;;14.98;80.07;99969.98;1639023;85;25877;-68
2021/09/16 05:10:53;;;;;;;25.65;16.35;;;;;;;15.00;80.24;99961.47;1647279;84;25865;-68
2021/09/16 05:13:20;;;;;;;24.40;16.93;;;;;;;15.03;80.09;99962.15;1645149;85;25842;-68
2021/09/16 05:15:46;;;;;;;21.82;15.65;;;;;;;15.05;79.98;99963.95;1644809;85;26530;-66
2021/09/16 05:18:13;;;;;;;26.40;16.25;;;;;;;15.05;79.93;99971.57;1638587;85;27282;-67
2021/09/16 05:20:39;;;;;;;21.87;15.35;;;;;;;15.08;79.95;99970.07;1663208;84;25871;-68
2021/09/16 05:23:06;;;;;;;22.58;15.98;;;;;;;15.08;79.88;99970.85;1634261;86;25693;-68
2021/09/16 05:25:32;;;;;;;21.23;16.30;;;;;;;15.08;79.79;99970.85;1645920;86;25664;-72
2021/09/16 05:28:00;;;;;;;25.15;16.05;;;;;;;15.10;79.88;99974.59;1655640;85;25888;-72
2021/09/16 05:30:26;;;;;;;23.15;17.20;;;;;;;15.09;79.93;99969.73;1659743;84;27995;-71
2021/09/16 05:32:53;;;;;;;24.87;17.02;;;;;;;15.15;80.05;99970.26;1649249;85;25769;-71
2021/09/16 05:35:19;;;;;;;24.57;17.23;;;;;;;15.17;80.06;99974.81;1652423;85;25677;-71
2021/09/16 05:37:46;;;;;;;26.75;17.17;;;;;;;15.20;80.13;99976.81;1628746;86;25887;-71
2021/09/16 05:40:14;;;;;;;24.85;17.20;;;;;;;15.23;80.16;99974.77;1645718;85;25886;-71
2021/09/16 05:42:41;;;;;;;24.35;16.70;;;;;;;15.26;80.11;99975.44;1633778;86;27942;-72
2021/09/16 05:45:09;;;;;;;28.75;18.05;;;;;;;15.28;80.35;99969.06;1688074;82;25686;-72
2021/09/16 05:47:36;;;;;;;29.18;18.90;;;;;;;15.31;80.40;99967.59;1692332;82;25756;-72
2021/09/16 05:50:04;;;;;;;23.50;17.17;;;;;;;15.37;80.40;99973.56;1680421;81;26245;-72
2021/09/16 05:52:31;;;;;;;27.27;18.70;;;;;;;15.39;80.52;99972.64;1694863;83;25926;-69
2021/09/16 05:54:57;;;;;;;25.08;17.85;;;;;;;15.38;80.36;99963.69;1693792;81;27398;-70
2021/09/16 05:57:23;;;;;;;25.43;17.95;;;;;;;15.44;80.89;99969.66;1698794;82;25574;-70
2021/09/16 05:59:50;;;;;;;25.68;18.35;;;;;;;15.44;80.65;99966.39;1692285;81;25808;-70
2021/09/16 06:02:16;;;;;;;25.60;18.65;;;;;;;15.49;80.98;99963.95;1686399;81;26251;-70
2021/09/16 06:04:43;;;;;;;25.50;18.27;;;;;;;15.53;80.86;99964.86;1686258;82;25815;-70
2021/09/16 06:07:09;;;;;;;28.65;19.40;;;;;;;15.57;80.96;99962.22;1683170;82;28163;-70
2021/09/16 06:09:35;;;;;;;23.47;18.05;;;;;;;15.61;81.08;99961.17;1688571;82;25434;-70
2021/09/16 06:12:04;;;;;;;26.95;19.50;;;;;;;15.64;81.20;99960.45;1685499;83;25863;-70
2021/09/16 06:14:31;;;;;;;25.40;19.23;;;;;;;15.69;81.10;99966.22;1684089;83;25766;-70
2021/09/16 06:16:59;;;;;;;26.62;19.32;;;;;;;15.73;81.00;99963.00;1682689;81;25410;-70
2021/09/16 06:19:26;;;;;;;27.17;19.92;;;;;;;15.72;80.86;99956.56;1689373;82;27374;-69
2021/09/16 06:21:53;;;;;;;29.18;20.20;;;;;;;15.71;80.76;99957.69;1690034;83;26585;-69
2021/09/16 06:24:20;;;;;;;32.75;21.73;;;;;;;15.67;80.68;99954.30;1690828;82;25742;-69
2021/09/16 06:26:47;;;;;;;26.77;19.07;;;;;;;15.63;80.76;99950.70;1688766;82;25709;-69
2021/09/16 06:29:14;;;;;;;32.35;21.17;;;;;;;15.60;80.82;99947.89;1707939;83;25697;-71
2021/09/16 06:31:40;;;;;;;31.40;21.05;;;;;;;15.59;81.07;99947.08;1694819;81;26959;-70
2021/09/16 06:34:07;;;;;;;30.95;20.60;;;;;;;15.59;81.18;99949.02;1694821;82;26491;-70
2021/09/16 06:36:34;;;;;;;29.10;20.57;;;;;;;15.62;81.55;99945.02;1691831;82;25825;-70
2021/09/16 06:39:01;;;;;;;31.93;22.62;;;;;;;15.68;81.75;99945.54;1652761;84;25706;-70
2021/09/16 06:41:27;;;;;;;31.80;21.93;;;;;;;15.74;81.99;99940.05;1650244;84;26017;-70
2021/09/16 06:43:54;;;;;;;30.50;21.50;;;;;;;15.75;81.62;99939.47;1639190;86;27319;-70
2021/09/16 06:46:21;;;;;;;31.70;21.48;;;;;;;15.82;81.97;99933.66;1637167;85;26417;-70
2021/09/16 06:48:48;;;;;;;32.05;22.80;;;;;;;15.87;82.14;99935.34;1641776;85;25668;-70
2021/09/16 06:51:15;;;;;;;34.90;22.37;;;;;;;15.92;81.94;99932.34;1643582;84;26262;-70
2021/09/16 06:53:42;;;;;;;31.97;22.50;;;;;;;15.95;81.93;99929.47;1659834;84;25840;-70
2021/09/16 06:56:08;;;;;;;30.52;21.82;;;;;;;15.93;81.78;99931.18;1675354;83;27925;-70
2021/09/16 06:58:35;;;;;;;26.33;21.57;;;;;;;15.99;81.87;99932.51;1680392;84;25856;-70
2021/09/16 07:01:01;;;;;;;29.87;22.02;;;;;;;16.03;81.92;99936.09;1685525;83;25803;-70
2021/09/16 07:03:28;;;;;;;31.68;22.27;;;;;;;16.11;82.13;99940.37;1685954;83;26119;-70
2021/09/16 07:05:55;;;;;;;35.35;24.27;;;;;;;16.16;81.94;99934.64;1675838;84;25865;-70
2021/09/16 07:08:22;;;;;;;32.85;23.75;;;;;;;16.21;81.81;99935.16;1632976;86;27473;-70
2021/09/16 07:10:49;;;;;;;33.70;23.73;;;;;;;16.25;81.69;99945.56;1630089;85;25616;-70
2021/09/16 07:13:16;;;;;;;29.52;22.17;;;;;;;16.31;81.50;99946.65;1638721;86;25418;-70
2021/09/16 07:15:43;;;;;;;35.10;23.02;;;;;;;16.31;81.47;99946.65;1634548;85;25954;-70
2021/09/16 07:18:09;;;;;;;31.55;23.07;;;;;;;16.35;81.50;99940.72;1631347;86;25890;-70
2021/09/16 07:20:36;;;;;;;36.85;23.55;;;;;;;16.42;81.75;99947.69;1640643;85;27328;-70
2021/09/16 07:23:03;;;;;;;31.87;23.67;;;;;;;16.45;81.14;99948.34;1687350;83;25384;-70
2021/09/16 07:25:30;;;;;;;34.05;24.23;;;;;;;16.43;80.93;99956.11;1686922;81;25963;-70
2021/09/16 07:27:57;;;;;;;37.95;24.30;;;;;;;16.43;80.96;99953.38;1694773;82;25859;-70
2021/09/16 07:30:24;;;;;;;32.25;23.65;;;;;;;16.45;81.08;99957.90;1691427;81;25782;-70
2021/09/16 07:32:51;;;;;;;32.35;23.18;;;;;;;16.48;81.03;99965.94;1689335;83;27286;-70
2021/09/16 07:35:17;;;;;;;34.70;23.92;;;;;;;16.46;80.70;99970.37;1698506;82;25436;-70
2021/09/16 07:37:45;;;;;;;35.55;23.07;;;;;;;16.44;80.61;99975.41;1699441;83;25908;-70
2021/09/16 07:40:16;;;;;;;32.23;23.52;;;;;;;16.43;80.69;99968.39;1681725;82;25732;-70
2021/09/16 07:42:47;;;;;;;34.10;24.35;;;;;;;16.47;81.07;99968.47;1711931;82;26274;-70
2021/09/16 07:45:14;;;;;;;34.03;24.37;;;;;;;16.48;80.85;99967.30;1720427;83;27571;-70
2021/09/16 07:47:41;;;;;;;31.10;23.73;;;;;;;16.50;80.87;99953.52;1707878;81;25394;-70
2021/09/16 07:50:08;;;;;;;33.05;23.18;;;;;;;16.56;81.15;99957.53;1712347;82;25814;-70
2021/09/16 07:52:35;;;;;;;33.02;24.10;;;;;;;16.59;80.93;99956.83;1683810;82;25765;-70
2021/09/16 07:55:02;;;;;;;33.67;23.90;;;;;;;16.60;80.91;99948.86;1696941;82;25942;-70
2021/09/16 07:57:29;;;;;;;35.52;26.62;;;;;;;16.61;80.79;99945.55;1699010;82;28012;-70
2021/09/16 07:59:55;;;;;;;33.67;25.48;;;;;;;16.69;81.69;99947.28;1690159;83;25657;-70
2021/09/16 08:02:22;;;;;;;32.23;24.18;;;;;;;16.76;81.38;99940.59;1684166;82;25808;-70
2021/09/16 08:04:48;;;;;;;37.23;24.67;;;;;;;16.85;81.32;99953.28;1702917;82;26470;-70
2021/09/16 08:07:16;;;;;;;34.48;24.37;;;;;;;16.90;81.10;99948.90;1692733;82;25459;-70
2021/09/16 08:09:43;;;;;;;34.20;24.67;;;;;;;16.99;81.46;99942.63;1700576;82;27848;-70
2021/09/16 08:12:10;;;;;;;33.67;25.45;;;;;;;17.13;81.29;99942.13;1702077;82;25744;-70
2021/09/16 08:14:37;;;;;;;32.03;24.37;;;;;;;17.18;80.75;99939.89;1707879;81;25497;-71
2021/09/16 08:17:03;;;;;;;31.62;24.00;;;;;;;17.24;80.50;99938.22;1702132;83;26140;-71
2021/09/16 08:19:31;;;;;;;34.25;24.55;;;;;;;17.27;80.05;99941.61;1697166;82;25745;-71
2021/09/16 08:21:58;;;;;;;32.42;25.48;;;;;;;17.30;79.97;99942.25;1688458;82;27291;-70
2021/09/16 08:24:25;;;;;;;34.10;24.80;;;;;;;17.37;80.39;99938.27;1717591;83;25774;-70
2021/09/16 08:26:52;;;;;;;32.73;23.75;;;;;;;17.49;80.41;99944.14;1685151;82;25726;-70
2021/09/16 08:29:19;;;;;;;31.33;23.62;;;;;;;17.60;80.45;99942.36;1684147;82;26148;-71
2021/09/16 08:31:46;;;;;;;36.93;25.40;;;;;;;17.82;81.12;99939.98;1694307;82;25413;-71
2021/09/16 08:34:13;;;;;;;34.30;24.05;;;;;;;18.06;80.77;99944.30;1693373;82;27403;-71
2021/09/16 08:36:41;;;;;;;30.88;23.70;;;;;;;18.22;79.94;99937.31;1690403;82;25702;-70
2021/09/16 08:39:08;;;;;;;34.75;24.20;;;;;;;18.31;79.32;99940.56;1683785;82;25951;-70
2021/09/16 08:41:37;;;;;;;30.35;24.15;;;;;;;18.44;79.19;99932.92;1703719;83;25821;-70
2021/09/16 08:44:05;;;;;;;34.78;24.27;;;;;;;18.53;78.17;99935.38;1704535;82;25974;-70
2021/09/16 08:46:31;;;;;;;29.05;23.87;;;;;;;18.59;78.29;99937.42;1694312;82;27368;-70
2021/09/16 08:48:59;;;;;;;31.50;22.85;;;;;;;18.60;77.44;99933.51;1691084;83;25720;-70
2021/09/16 08:51:27;;;;;;;34.83;24.98;;;;;;;18.60;77.31;99929.40;1691156;83;25812;-70
2021/09/16 08:53:55;;;;;;;34.83;23.85;;;;;;;18.69;77.46;99931.85;1694710;83;26213;-70
2021/09/16 08:56:23;;;;;;;32.38;22.90;;;;;;;18.83;77.91;99934.81;1690031;82;25778;-70
2021/09/16 08:58:52;;;;;;;34.90;24.45;;;;;;;19.00;78.21;99933.44;1697831;83;27311;-70
2021/09/16 09:01:19;;;;;;;34.05;23.95;;;;;;;19.12;77.39;99937.88;1707731;82;25804;-70
2021/09/16 09:03:46;;;;;;;30.90;22.62;;;;;;;19.22;77.38;99923.48;1700050;81;25716;-70
2021/09/16 09:06:38;;;;;;;29.77;23.52;;;;;;;19.37;76.96;99919.50;1699161;81;26409;-70
2021/09/16 09:09:19;;;;;;;31.23;22.25;;;;;;;19.47;77.03;99922.14;1690845;82;25468;-70
2021/09/16 09:11:44;;;;;;;30.35;23.60;;;;;;;19.57;76.25;99915.36;1692420;82;27459;-70
2021/09/16 09:14:18;;;;;;;34.92;23.60;;;;;;;19.68;75.76;99910.55;1700349;82;25836;-70
2021/09/16 09:16:45;;;;;;;32.40;24.00;;;;;;;19.73;76.27;99918.42;1697792;82;25697;-70
2021/09/16 09:19:19;;;;;;;31.97;23.02;;;;;;;19.89;75.97;99918.20;1701747;83;26160;-70
2021/09/16 09:21:46;;;;;;;32.50;23.02;;;;;;;19.93;75.48;99912.14;1680586;82;25871;-70
2021/09/16 09:24:29;;;;;;;32.73;23.07;;;;;;;20.09;75.74;99907.73;1688395;82;27930;-70
2021/09/16 09:26:57;;;;;;;35.40;24.18;;;;;;;20.23;75.06;99907.05;1654087;83;25952;-71
2021/09/16 09:29:24;;;;;;;28.57;22.00;;;;;;;20.36;74.79;99905.52;1684320;82;25478;-72
2021/09/16 09:32:02;;;;;;;31.42;23.38;;;;;;;20.43;74.07;99913.82;1684775;83;25737;-71
2021/09/16 09:34:40;;;;;;;27.95;23.05;;;;;;;20.42;73.80;99907.33;1658473;84;25669;-70
2021/09/16 09:37:18;;;;;;;28.80;22.25;;;;;;;20.46;73.34;99910.88;1665419;84;27297;-70
2021/09/16 09:39:48;;;;;;;31.50;24.07;;;;;;;20.37;72.52;99904.36;1705279;81;25838;-70
2021/09/16 09:42:23;;;;;;;29.02;22.50;;;;;;;20.32;72.89;99916.49;1659457;84;25503;-70
2021/09/16 09:44:57;;;;;;;31.73;23.80;;;;;;;20.32;73.04;99904.73;1643028;86;25797;-69
2021/09/16 09:47:44;;;;;;;28.15;22.20;;;;;;;20.33;73.29;99893.95;1656749;85;25464;-70
2021/09/16 09:50:22;;;;;;;30.05;22.67;;;;;;;20.38;73.16;99897.70;1692361;82;27327;-70
2021/09/16 09:52:51;;;;;;;30.72;22.55;;;;;;;20.41;73.43;99895.55;1699403;82;25830;-70
2021/09/16 09:55:23;;;;;;;33.78;24.18;;;;;;;20.55;73.29;99892.66;1713888;82;25382;-69
2021/09/16 09:58:02;;;;;;;28.77;23.00;;;;;;;20.64;73.50;99895.28;1701851;81;27809;-69
2021/09/16 10:00:29;;;;;;;30.68;22.90;;;;;;;20.76;73.26;99894.75;1691527;83;32893;-69
2021/09/16 10:03:00;;;;;;;33.45;22.10;;;;;;;20.85;73.04;99894.56;1685640;83;27317;-69
2021/09/16 10:05:32;;;;;;;30.65;22.95;;;;;;;20.94;73.35;99894.19;1688425;83;25413;-68
2021/09/16 10:08:10;;;;;;;29.98;23.27;;;;;;;21.04;72.97;99895.39;1688679;82;25786;-69
2021/09/16 10:10:51;;;;;;;30.08;22.75;;;;;;;21.06;72.50;99896.59;1681885;84;25639;-69
2021/09/16 10:13:20;;;;;;;29.25;23.25;;;;;;;21.20;72.76;99890.92;1655052;84;25467;-71
2021/09/16 10:15:49;;;;;;;30.65;23.55;;;;;;;21.39;72.17;99887.00;1655648;85;27306;-67
2021/09/16 10:18:16;;;;;;;37.33;23.87;;;;;;;21.40;71.29;99893.48;1648112;85;25910;-69
2021/09/16 10:20:44;;;;;;;29.80;22.70;;;;;;;21.45;72.00;99890.34;1663135;82;25794;-70
2021/09/16 10:23:11;;;;;;;29.92;22.73;;;;;;;21.59;71.70;99904.72;1640780;84;26206;-70
2021/09/16 10:25:48;;;;;;;29.57;23.85;;;;;;;21.70;71.23;99897.05;1690964;82;26001;-70
2021/09/16 10:28:16;;;;;;;30.48;23.05;;;;;;;21.76;70.93;99896.26;1637500;85;27363;-70
2021/09/16 10:30:49;;;;;;;27.00;23.15;;;;;;;21.85;70.73;99901.36;1646681;85;25421;-69
2021/09/16 10:33:28;;;;;;;28.62;22.50;;;;;;;21.86;70.23;99904.29;1651672;84;25917;-70
2021/09/16 10:36:03;;;;;;;30.40;23.15;;;;;;;21.75;69.80;99892.52;1642985;86;26212;-68
2021/09/16 10:38:40;;;;;;;28.57;23.30;;;;;;;21.70;69.81;99897.05;1663987;84;25517;-68
2021/09/16 10:41:29;;;;;;;28.27;22.80;;;;;;;21.67;69.79;99900.59;1668194;85;27332;-71
2021/09/16 10:44:06;;;;;;;;;;;;;;;21.60;69.99;99887.02;1645131;84;25881;-68
2021/09/16 10:46:45;;;;;;;27.07;21.77;;;;;;;21.49;69.70;99897.25;1637388;85;25917;-67
2021/09/16 10:49:24;;;;;;;;;;;;;;;21.37;70.11;99888.77;1690849;84;25847;-66
2021/09/16 10:51:56;;;;;;;33.02;23.87;;;;;;;21.36;70.37;99893.28;1675310;83;25719;-67
2021/09/16 10:54:40;;;;;;;33.78;24.98;;;;;;;21.39;70.81;99886.41;1698804;81;27383;-68
2021/09/16 10:57:38;;;;;;;30.10;24.30;;;;;;;21.41;70.80;99886.80;1681322;82;26060;-69
2021/09/16 11:00:13;;;;;;;36.30;25.08;;;;;;;21.38;70.31;99881.29;1645808;85;25815;-65
2021/09/16 11:02:51;;;;;;;39.30;27.00;;;;;;;21.33;70.22;99878.93;1642179;86;26350;-68
2021/09/16 11:05:20;;;;;;;32.73;25.80;;;;;;;21.22;69.78;99880.30;1677611;84;25483;-67
2021/09/16 11:07:55;;;;;;;32.35;24.98;;;;;;;21.13;70.25;99868.32;1665043;83;27350;-68
2021/09/16 11:10:27;;;;;;;29.85;24.72;;;;;;;21.16;70.71;99879.11;1654630;85;25714;-68
2021/09/16 11:13:05;;;;;;;33.33;25.37;;;;;;;21.26;71.18;99893.46;1658951;85;25488;-68
2021/09/16 11:15:36;;;;;;;33.67;25.65;;;;;;;21.33;70.98;99896.81;1667048;84;25683;-68
2021/09/16 11:18:09;;;;;;;31.42;25.20;;;;;;;21.41;71.02;99886.80;1653811;84;25720;-68
2021/09/16 11:20:39;;;;;;;34.80;27.35;;;;;;;21.45;71.08;99894.47;1699672;83;27315;-69